Douglas, Illinois
Current Conditions -  °F | °C
As of 7:55 AM on Wednesday 26 Nov 2014 (Local Time) from K1H2 Reporting Station
Clear Clear  
Wind Chill: 20°   Ceiling: Unl
Heat Index: 26°   Visibility: 7mi
Dew Point: 23°   Wind: 6mph
Humidity: 88%   Direction: 120°ESE
Pressure: 30.14"   Gusts: NA
Location:  39.1183°N, 88.6059°W
Report Text: K1H2 261355Z AUTO 12005KT 7SM CLR M03/M05 A3014 RMK AO2 T10321050
Loading
Personal Weather Stations






























Interactive Weather Map New forecast layout! Learn more

10-Day Weather Forecast

Advertisements
Track Severe Weather on mobile